TimeCDT,TemperatureF,Dew PointF,Humidity,Sea Level PressureIn,VisibilityMPH,Wind Direction,Wind SpeedMPH,Gust SpeedMPH,PrecipitationIn,Events,Conditions,WindDirDegrees,DateUTC
12:15 AM,64.4,59.0,83,30.14,10.0,Calm,Calm,-,N/A,,Overcast,0,2012-10-05 05:15:00
12:35 AM,64.4,59.0,83,30.13,10.0,Calm,Calm,-,N/A,,Overcast,0,2012-10-05 05:35:00
12:55 AM,62.6,59.0,88,30.14,10.0,Calm,Calm,-,N/A,,Overcast,0,2012-10-05 05:55:00
1:15 AM,62.6,59.0,88,30.14,10.0,NNW,5.8,-,N/A,,Overcast,330,2012-10-05 06:15:00
1:55 AM,62.6,57.2,82,30.14,10.0,NNW,3.5,-,N/A,,Overcast,340,2012-10-05 06:55:00
2:15 AM,62.6,57.2,82,30.13,10.0,North,4.6,-,N/A,,Overcast,360,2012-10-05 07:15:00
2:35 AM,62.6,55.4,77,30.13,10.0,NNW,5.8,-,N/A,,Overcast,340,2012-10-05 07:35:00
2:55 AM,60.8,55.4,82,30.13,10.0,NNW,9.2,-,N/A,,Overcast,340,2012-10-05 07:55:00
3:15 AM,59.0,55.4,88,30.13,10.0,NNW,10.4,-,N/A,,Overcast,330,2012-10-05 08:15:00
3:35 AM,59.0,53.6,82,30.14,10.0,NNW,11.5,-,N/A,,Overcast,340,2012-10-05 08:35:00
3:55 AM,57.2,50.0,77,30.14,10.0,NNW,11.5,-,N/A,,Overcast,340,2012-10-05 08:55:00
4:15 AM,57.2,50.0,77,30.14,10.0,NNW,9.2,-,N/A,,Overcast,340,2012-10-05 09:15:00
4:35 AM,57.2,50.0,77,30.14,10.0,North,8.1,-,N/A,,Overcast,350,2012-10-05 09:35:00
4:55 AM,55.4,48.2,77,30.14,10.0,North,6.9,-,N/A,,Overcast,360,2012-10-05 09:55:00
5:15 AM,55.4,48.2,77,30.14,10.0,North,6.9,-,N/A,,Overcast,360,2012-10-05 10:15:00
5:35 AM,55.4,46.4,72,30.14,10.0,North,6.9,-,N/A,,Overcast,10,2012-10-05 10:35:00
5:55 AM,55.4,46.4,72,30.14,10.0,North,6.9,-,N/A,,Overcast,10,2012-10-05 10:55:00
6:35 AM,53.6,46.4,77,30.13,10.0,NNE,5.8,-,N/A,,Overcast,30,2012-10-05 11:35:00
6:50 AM,53.6,46.4,77,30.14,10.0,East,5.8,-,N/A,,Mostly Cloudy,90,2012-10-05 11:50:00
7:48 AM,53.6,46.4,77,30.13,10.0,North,5.8,-,N/A,,Mostly Cloudy,360,2012-10-05 12:48:00
8:49 AM,53.6,46.4,77,30.13,10.0,NE,6.9,-,N/A,,Overcast,50,2012-10-05 13:49:00
9:45 AM,50.0,48.2,94,30.15,4.0,NNE,11.5,-,N/A,Rain-Thunderstorm,Light Thunderstorms and Rain,30,2012-10-05 14:45:00
10:48 AM,50.0,48.2,94,30.13,8.0,NNE,8.1,-,N/A,,Overcast,30,2012-10-05 15:48:00
11:45 AM,48.2,48.2,100,30.14,8.0,North,8.1,-,N/A,,Overcast,350,2012-10-05 16:45:00
12:45 PM,48.2,48.2,100,30.12,5.0,NE,4.6,-,N/A,,Overcast,50,2012-10-05 17:45:00
1:46 PM,48.2,48.2,100,30.12,2.5,North,6.9,-,N/A,Rain,Light Rain,350,2012-10-05 18:46:00
2:47 PM,48.2,48.2,100,30.11,1.0,North,10.4,-,N/A,Rain,Light Rain,350,2012-10-05 19:47:00
3:50 PM,48.2,46.4,93,30.14,1.5,North,11.5,20.7,N/A,Rain,Light Rain,360,2012-10-05 20:50:00
4:46 PM,46.4,46.4,100,30.15,1.5,North,10.4,-,N/A,,Overcast,10,2012-10-05 21:46:00
5:49 PM,44.6,44.6,100,30.17,10.0,North,10.4,-,N/A,,Overcast,10,2012-10-05 22:49:00
6:48 PM,44.6,41.0,87,30.20,10.0,North,5.8,-,N/A,,Overcast,10,2012-10-05 23:48:00
7:47 PM,42.8,39.2,87,30.21,10.0,North,8.1,-,N/A,,Overcast,10,2012-10-06 00:47:00
8:45 PM,42.8,39.2,87,30.23,10.0,North,8.1,-,N/A,,Overcast,10,2012-10-06 01:45:00
9:15 PM,42.8,41.0,93,30.24,10.0,NNW,9.2,-,N/A,,Overcast,340,2012-10-06 02:15:00
9:35 PM,42.8,39.2,87,30.24,10.0,North,9.2,-,N/A,,Overcast,350,2012-10-06 02:35:00
9:55 PM,41.0,39.2,93,30.25,10.0,North,8.1,-,N/A,,Overcast,350,2012-10-06 02:55:00
10:15 PM,41.0,39.2,93,30.25,10.0,North,6.9,-,N/A,,Mostly Cloudy,10,2012-10-06 03:15:00
10:35 PM,41.0,37.4,87,30.24,10.0,Calm,Calm,-,N/A,,Mostly Cloudy,0,2012-10-06 03:35:00
10:55 PM,41.0,37.4,87,30.24,10.0,Calm,Calm,-,N/A,,Scattered Clouds,0,2012-10-06 03:55:00
11:15 PM,39.2,37.4,93,30.24,10.0,Calm,Calm,-,N/A,,Clear,0,2012-10-06 04:15:00
11:35 PM,39.2,39.2,100,30.24,10.0,Calm,Calm,-,N/A,,Partly Cloudy,0,2012-10-06 04:35:00
11:55 PM,39.2,37.4,93,30.24,10.0,Calm,Calm,-,N/A,,Partly Cloudy,0,2012-10-06 04:55:00